KMYV/MYV METAR and TAF weather

Enter ICAO airport designator
Station Type Date Time Source
KMYV METAR 2019/10/21 02:53 UTC NOAA

KMYV 210253Z AUTO 33006KT 10SM CLR 17/04 A3006 RMK AO2 SLP183 T01720044 53001


Station Type Date Time Source
KMYV Decoded METAR 2019/10/21 02:53 UTC NOAA

MARYSVILLE YUBA COUNTY, CA, United States (KMYV) 39-06N 121-34W 21M
Oct 20, 2019 - 10:53 PM EDT / 2019.10.21 0253 UTC
Wind: from the NNW (330 degrees) at 7 MPH (6 KT):0
Visibility: 10 mile(s):0
Sky conditions: clear
Temperature: 63.0 F (17.2 C)
Dew Point: 39.9 F (4.4 C)
Relative Humidity: 42%
Pressure (altimeter): 30.06 in. Hg (1017 hPa)
Pressure tendency: 0.00 inches (0.1 hPa) higher than three hours ago
ob: KMYV 210253Z AUTO 33006KT 10SM CLR 17/04 A3006 RMK AO2 SLP183 T01720044 53001
cycle: 3

Station Type Date Time Source
KMYV TAF UTC NOAA

Error!

Example: see airport list